Time;durP1;ratioP1;P1;durP2;ratioP2;P2;SDS_P1;SDS_P2;PMS_P1;PMS_P2;Temp;Humidity;BMP_temperature;BMP_pressure;BME280_temperature;BME280_humidity;BME280_pressure;Samples;Min_cycle;Max_cycle;Signal;HPM_P1;HPM_P2
2021/09/07 00:00:21;;;;;;;10.07;4.82;;;14.60;87.70;;;;;;6286257;22;20030;-77
2021/09/07 00:02:50;;;;;;;8.77;5.00;;;14.60;87.80;;;;;;6318385;22;20022;-77
2021/09/07 00:05:17;;;;;;;8.90;4.70;;;14.50;88.00;;;;;;6291597;22;20339;-77
2021/09/07 00:07:51;;;;;;;10.13;4.22;;;14.50;88.20;;;;;;6317964;22;20019;-77
2021/09/07 00:10:25;;;;;;;10.70;3.65;;;14.40;87.50;;;;;;6317199;22;20079;-78
2021/09/07 00:12:52;;;;;;;8.20;4.32;;;14.30;87.10;;;;;;6318793;22;20083;-77
2021/09/07 00:15:20;;;;;;;8.23;4.32;;;14.30;87.40;;;;;;6317800;22;20022;-77
2021/09/07 00:17:50;;;;;;;7.40;3.97;;;14.30;87.50;;;;;;6316285;22;20043;-77
2021/09/07 00:20:17;;;;;;;9.07;4.53;;;14.30;87.40;;;;;;6317538;22;20023;-77
2021/09/07 00:22:44;;;;;;;9.10;4.18;;;14.30;87.50;;;;;;6316241;22;20029;-77
2021/09/07 00:25:12;;;;;;;8.85;4.45;;;14.30;87.60;;;;;;6291456;22;20263;-77
2021/09/07 00:27:39;;;;;;;9.38;4.40;;;14.20;87.70;;;;;;6317645;22;20019;-78
2021/09/07 00:30:08;;;;;;;7.80;4.30;;;14.20;87.60;;;;;;6317774;22;20015;-77
2021/09/07 00:32:36;;;;;;;8.88;4.72;;;14.30;87.90;;;;;;6317383;22;20034;-77
2021/09/07 00:35:07;;;;;;;9.98;4.05;;;14.30;87.90;;;;;;6318131;22;20238;-77
2021/09/07 00:37:35;;;;;;;11.88;4.90;;;14.40;87.70;;;;;;6317575;22;20081;-76
2021/09/07 00:40:02;;;;;;;8.85;4.68;;;14.40;87.80;;;;;;6318964;22;20249;-76
2021/09/07 00:42:34;;;;;;;9.55;4.38;;;14.40;88.00;;;;;;6317649;22;20037;-77
2021/09/07 00:45:04;;;;;;;9.77;4.72;;;14.30;88.10;;;;;;6285113;22;20028;-76
2021/09/07 00:47:34;;;;;;;8.98;4.55;;;14.30;88.30;;;;;;6286579;22;20226;-77
2021/09/07 00:50:01;;;;;;;9.88;5.00;;;14.20;88.30;;;;;;6287106;22;20031;-77
2021/09/07 00:52:31;;;;;;;12.55;4.43;;;14.20;88.50;;;;;;6286921;22;20027;-78
2021/09/07 00:54:59;;;;;;;9.23;4.05;;;14.20;88.70;;;;;;6284816;22;20043;-77
2021/09/07 00:57:26;;;;;;;10.15;4.28;;;14.10;88.60;;;;;;6284675;22;20032;-77
2021/09/07 00:59:54;;;;;;;9.73;4.72;;;14.10;88.70;;;;;;6282969;22;20024;-77
2021/09/07 01:02:22;;;;;;;9.10;4.22;;;14.10;88.50;;;;;;6278429;22;20034;-77
2021/09/07 01:04:50;;;;;;;11.45;4.93;;;14.10;88.70;;;;;;6284655;22;20246;-77
2021/09/07 01:07:19;;;;;;;12.48;4.47;;;14.10;88.70;;;;;;6284023;22;20026;-76
2021/09/07 01:09:48;;;;;;;10.35;4.50;;;14.20;88.60;;;;;;6284063;22;20102;-75
2021/09/07 01:12:16;;;;;;;9.23;4.43;;;14.20;88.40;;;;;;6285286;22;20023;-78
2021/09/07 01:14:45;;;;;;;9.23;4.18;;;14.10;88.40;;;;;;6210528;22;23573;-77
2021/09/07 01:17:14;;;;;;;5.86;3.12;;;14.10;88.40;;;;;;379597;22;10021683;-78
2021/09/07 01:19:43;;;;;;;10.30;5.10;;;14.10;88.40;;;;;;6282824;22;20035;-78
2021/09/07 01:22:10;;;;;;;10.25;4.57;;;14.00;88.50;;;;;;6282837;22;20039;-77
2021/09/07 01:24:42;;;;;;;14.23;4.57;;;14.10;88.70;;;;;;6284533;22;20035;-77
2021/09/07 01:27:09;;;;;;;10.27;4.68;;;14.10;88.50;;;;;;6284835;22;20046;-78
2021/09/07 01:29:40;;;;;;;12.07;5.90;;;14.10;88.50;;;;;;6283609;22;20342;-77
2021/09/07 01:32:09;;;;;;;9.23;4.60;;;14.10;88.50;;;;;;6285225;22;20031;-77
2021/09/07 01:34:38;;;;;;;10.43;4.65;;;14.20;88.40;;;;;;6285762;22;20196;-77
2021/09/07 01:37:05;;;;;;;11.45;4.72;;;14.20;88.50;;;;;;6286906;22;20215;-77
2021/09/07 01:39:32;;;;;;;9.32;4.22;;;14.10;88.50;;;;;;6286188;22;20023;-77
2021/09/07 01:42:01;;;;;;;9.70;4.32;;;14.10;88.60;;;;;;6286807;22;20031;-78
2021/09/07 01:44:31;;;;;;;8.67;4.30;;;14.00;88.60;;;;;;6289656;22;20030;-75
2021/09/07 01:46:59;;;;;;;9.30;4.80;;;14.10;88.60;;;;;;6317168;22;20063;-77
2021/09/07 01:49:26;;;;;;;9.52;4.60;;;14.10;88.60;;;;;;6289985;22;20018;-77
2021/09/07 01:51:54;;;;;;;9.35;5.22;;;14.10;88.60;;;;;;6290446;22;20376;-78
2021/09/07 01:54:22;;;;;;;9.20;4.72;;;14.00;88.60;;;;;;6316182;22;20031;-77
2021/09/07 01:56:49;;;;;;;11.32;4.93;;;14.00;88.50;;;;;;6317896;22;20035;-77
2021/09/07 01:59:19;;;;;;;11.88;5.43;;;14.10;88.50;;;;;;6316994;22;20049;-78
2021/09/07 02:01:47;;;;;;;8.73;5.05;;;14.10;88.40;;;;;;6312055;22;20019;-77
2021/09/07 02:04:14;;;;;;;9.32;5.20;;;14.20;88.50;;;;;;6317055;22;20023;-77
2021/09/07 02:06:42;;;;;;;9.00;4.38;;;14.20;88.30;;;;;;6315471;22;20018;-77
2021/09/07 02:09:09;;;;;;;8.52;4.50;;;14.30;88.20;;;;;;6289758;22;20314;-76
2021/09/07 02:11:37;;;;;;;11.80;5.18;;;14.30;88.10;;;;;;6316990;22;20064;-77
2021/09/07 02:14:05;;;;;;;11.05;4.88;;;14.40;87.90;;;;;;6289854;22;20259;-78
2021/09/07 02:16:34;;;;;;;10.73;4.90;;;14.40;87.80;;;;;;6316860;22;20054;-77
2021/09/07 02:19:01;;;;;;;13.45;5.50;;;14.40;87.60;;;;;;6290159;22;20341;-77
2021/09/07 02:21:32;;;;;;;9.38;4.22;;;14.40;87.50;;;;;;6287583;22;20027;-77
2021/09/07 02:23:59;;;;;;;13.00;5.80;;;14.40;87.30;;;;;;6317738;22;20030;-78
2021/09/07 02:26:27;;;;;;;12.80;4.80;;;14.40;87.10;;;;;;6328260;22;20038;-77
2021/09/07 02:28:54;;;;;;;10.13;5.22;;;14.40;87.20;;;;;;6323085;22;20191;-77
2021/09/07 02:31:22;;;;;;;9.70;5.28;;;14.20;87.30;;;;;;6288034;22;20025;-76
2021/09/07 02:33:52;;;;;;;11.50;4.97;;;14.20;87.50;;;;;;6314404;22;20015;-76
2021/09/07 02:36:20;;;;;;;11.27;5.10;;;14.20;87.50;;;;;;6315555;22;20019;-77
2021/09/07 02:38:48;;;;;;;8.82;4.20;;;14.20;87.60;;;;;;6288020;22;20022;-77
2021/09/07 02:41:16;;;;;;;8.07;4.25;;;14.30;87.70;;;;;;6317151;22;20065;-78
2021/09/07 02:43:44;;;;;;;10.88;4.60;;;14.30;87.30;;;;;;6316065;22;20027;-77
2021/09/07 02:46:12;;;;;;;11.15;5.03;;;14.30;87.30;;;;;;6317608;22;20030;-77
2021/09/07 02:48:39;;;;;;;10.02;5.57;;;14.30;87.30;;;;;;6317555;22;20027;-78
2021/09/07 02:51:09;;;;;;;11.00;4.97;;;14.30;87.40;;;;;;6317512;22;20022;-77
2021/09/07 02:53:36;;;;;;;11.20;4.85;;;14.40;87.40;;;;;;6316505;22;20199;-77
2021/09/07 02:56:03;;;;;;;11.27;5.03;;;14.40;87.30;;;;;;6317054;22;20023;-77
2021/09/07 02:58:31;;;;;;;12.02;4.97;;;14.40;87.30;;;;;;6290244;22;20019;-77
2021/09/07 03:00:59;;;;;;;8.65;4.53;;;14.50;87.20;;;;;;6312655;22;20018;-78
2021/09/07 03:03:26;;;;;;;11.23;5.18;;;14.50;87.20;;;;;;6317316;22;20034;-77
2021/09/07 03:05:53;;;;;;;10.50;5.15;;;14.50;87.40;;;;;;6317626;22;20022;-77
2021/09/07 03:08:23;;;;;;;12.50;5.22;;;14.50;87.30;;;;;;6317090;22;20027;-77
2021/09/07 03:10:50;;;;;;;11.07;5.00;;;14.60;87.20;;;;;;6317746;22;20030;-78
2021/09/07 03:13:18;;;;;;;13.20;5.07;;;14.60;87.00;;;;;;6290741;22;20027;-77
2021/09/07 03:15:46;;;;;;;17.80;5.10;;;14.70;86.70;;;;;;6318904;22;20015;-77
2021/09/07 03:18:15;;;;;;;9.88;4.65;;;14.70;86.50;;;;;;6318448;22;20345;-78
2021/09/07 03:20:43;;;;;;;11.40;5.05;;;14.70;86.50;;;;;;6291235;22;20015;-78
2021/09/07 03:23:11;;;;;;;12.00;5.28;;;14.70;86.60;;;;;;6318554;22;20038;-76
2021/09/07 03:25:41;;;;;;;10.00;5.13;;;14.60;86.60;;;;;;6289245;22;20031;-77
2021/09/07 03:28:08;;;;;;;12.38;4.78;;;14.60;86.70;;;;;;6318206;22;20058;-77
2021/09/07 03:30:37;;;;;;;13.02;5.20;;;14.70;86.60;;;;;;6316796;22;20210;-77
2021/09/07 03:33:06;;;;;;;8.38;5.00;;;14.60;86.60;;;;;;6317568;22;20040;-77
2021/09/07 03:35:33;;;;;;;10.85;5.28;;;14.60;86.60;;;;;;6317406;22;20026;-77
2021/09/07 03:38:01;;;;;;;11.48;4.82;;;14.70;86.70;;;;;;6318174;22;20082;-77
2021/09/07 03:40:30;;;;;;;13.73;5.03;;;14.60;86.70;;;;;;6317209;22;20234;-77
2021/09/07 03:42:58;;;;;;;11.05;5.15;;;14.70;86.50;;;;;;6316789;22;20326;-77
2021/09/07 03:45:26;;;;;;;14.63;5.35;;;14.60;86.70;;;;;;6316862;22;20037;-75
2021/09/07 03:47:54;;;;;;;11.30;5.40;;;14.60;86.60;;;;;;6318581;22;20384;-77
2021/09/07 03:50:22;;;;;;;9.13;4.65;;;14.60;86.70;;;;;;6317513;22;20027;-77
2021/09/07 03:52:52;;;;;;;11.82;5.22;;;14.70;86.30;;;;;;6317965;22;20323;-76
2021/09/07 03:55:20;;;;;;;10.43;5.20;;;14.80;86.20;;;;;;6318266;22;20019;-77
2021/09/07 03:57:47;;;;;;;11.82;5.85;;;14.70;86.10;;;;;;6289812;22;20084;-78
2021/09/07 04:00:17;;;;;;;11.30;5.00;;;14.70;86.20;;;;;;6285634;22;20029;-76
2021/09/07 04:02:48;;;;;;;9.98;4.70;;;14.70;86.50;;;;;;6291005;22;20027;-77
2021/09/07 04:05:15;;;;;;;8.90;4.90;;;14.70;86.50;;;;;;6318698;22;20358;-77
2021/09/07 04:07:43;;;;;;;9.50;4.80;;;14.70;86.60;;;;;;6318681;22;20101;-76
2021/09/07 04:10:10;;;;;;;14.40;5.22;;;14.70;86.70;;;;;;6318956;22;20015;-77
2021/09/07 04:12:38;;;;;;;11.85;5.47;;;14.80;86.70;;;;;;6317825;22;20073;-77
2021/09/07 04:15:08;;;;;;;13.52;5.70;;;14.80;86.50;;;;;;6318100;22;20015;-78
2021/09/07 04:17:36;;;;;;;9.65;4.60;;;14.80;86.40;;;;;;6316405;22;20214;-77
2021/09/07 04:20:05;;;;;;;12.73;5.18;;;14.90;86.70;;;;;;6317552;22;20034;-78
2021/09/07 04:22:33;;;;;;;10.57;5.20;;;14.90;86.60;;;;;;6314845;22;20027;-77
2021/09/07 04:25:00;;;;;;;11.07;5.28;;;14.90;86.70;;;;;;6317520;22;20027;-77
2021/09/07 04:27:34;;;;;;;12.02;5.13;;;14.90;86.80;;;;;;6289077;22;20040;-77
2021/09/07 04:30:01;;;;;;;9.93;5.03;;;15.00;86.70;;;;;;6289347;22;20035;-77
2021/09/07 04:32:31;;;;;;;;;;;15.00;86.40;;;;;;6316526;22;20023;-77
2021/09/07 04:35:00;;;;;;;12.52;5.90;;;15.10;86.30;;;;;;6316163;22;19933;-77
2021/09/07 04:37:27;;;;;;;11.65;5.35;;;15.10;86.20;;;;;;6288187;22;20019;-77
2021/09/07 04:39:54;;;;;;;9.88;5.22;;;15.10;86.10;;;;;;6317198;22;20269;-77
2021/09/07 04:42:22;;;;;;;10.05;4.78;;;15.10;86.20;;;;;;6316362;22;20204;-77
2021/09/07 04:44:50;;;;;;;9.32;5.40;;;15.00;86.20;;;;;;6315557;22;20210;-77
2021/09/07 04:47:17;;;;;;;10.98;5.63;;;15.00;86.20;;;;;;6316372;22;20022;-77
2021/09/07 04:49:45;;;;;;;11.35;5.50;;;15.00;86.30;;;;;;6288698;22;20123;-77
2021/09/07 04:52:13;;;;;;;12.55;4.90;;;14.90;86.40;;;;;;6316953;22;20058;-77
2021/09/07 04:54:41;;;;;;;15.13;5.47;;;15.00;86.40;;;;;;6288776;22;20303;-77
2021/09/07 04:57:08;;;;;;;9.88;5.32;;;15.00;86.40;;;;;;6316336;22;20015;-77
2021/09/07 04:59:35;;;;;;;11.10;5.50;;;15.00;86.40;;;;;;6316605;22;20015;-77
2021/09/07 05:02:03;;;;;;;10.63;5.10;;;15.10;86.30;;;;;;6311249;22;20065;-77
2021/09/07 05:04:30;;;;;;;10.60;5.15;;;15.10;86.40;;;;;;6317603;22;20038;-77
2021/09/07 05:07:00;;;;;;;12.32;5.43;;;15.00;86.40;;;;;;6317142;22;20016;-77
2021/09/07 05:09:29;;;;;;;11.15;5.90;;;15.10;86.30;;;;;;6317434;22;20027;-77
2021/09/07 05:11:56;;;;;;;12.90;5.88;;;15.10;86.40;;;;;;6289397;22;20015;-77
2021/09/07 05:14:24;;;;;;;11.90;5.10;;;15.10;86.40;;;;;;6316278;22;20043;-76
2021/09/07 05:16:51;;;;;;;10.43;5.63;;;15.20;86.40;;;;;;6322205;22;20023;-76
2021/09/07 05:19:18;;;;;;;9.98;4.95;;;15.20;86.10;;;;;;6327407;22;20065;-76
2021/09/07 05:21:45;;;;;;;14.10;5.82;;;15.30;85.80;;;;;;6290544;22;20034;-77
2021/09/07 05:24:12;;;;;;;11.15;5.18;;;15.40;85.70;;;;;;6289380;22;20015;-76
2021/09/07 05:26:41;;;;;;;10.63;5.28;;;15.50;85.50;;;;;;6287855;22;20042;-77
2021/09/07 05:29:08;;;;;;;16.25;5.75;;;15.50;85.60;;;;;;6316426;22;20020;-76
2021/09/07 05:31:35;;;;;;;11.55;5.13;;;15.60;85.20;;;;;;6288827;22;20019;-76
2021/09/07 05:34:03;;;;;;;13.32;5.15;;;15.60;85.20;;;;;;6314655;22;20035;-77
2021/09/07 05:36:30;;;;;;;8.13;4.53;;;15.50;85.20;;;;;;6315033;22;20023;-76
2021/09/07 05:38:57;;;;;;;10.70;5.63;;;15.60;85.30;;;;;;6316755;22;20061;-77
2021/09/07 05:41:24;;;;;;;9.35;5.38;;;15.60;85.00;;;;;;6315597;22;20034;-78
2021/09/07 05:43:53;;;;;;;10.85;5.15;;;15.60;85.20;;;;;;6315207;22;20310;-77
2021/09/07 05:46:20;;;;;;;10.48;5.65;;;15.70;85.30;;;;;;6316803;22;20027;-77
2021/09/07 05:48:47;;;;;;;11.82;5.70;;;15.70;85.10;;;;;;6316246;22;20321;-77
2021/09/07 05:51:14;;;;;;;10.63;5.05;;;15.70;85.10;;;;;;6316598;22;20035;-75
2021/09/07 05:53:42;;;;;;;15.82;5.05;;;15.80;84.90;;;;;;6315565;22;20192;-77
2021/09/07 05:56:10;;;;;;;11.80;5.72;;;15.80;85.00;;;;;;6315940;22;20062;-76
2021/09/07 05:58:38;;;;;;;11.00;5.22;;;15.90;84.70;;;;;;6314325;22;20034;-77
2021/09/07 06:01:07;;;;;;;10.60;5.57;;;15.90;84.70;;;;;;6310651;22;20035;-77
2021/09/07 06:03:34;;;;;;;11.20;5.75;;;16.00;84.40;;;;;;6287066;22;20019;-77
2021/09/07 06:06:01;;;;;;;12.13;6.40;;;16.00;84.30;;;;;;6286981;22;20234;-76
2021/09/07 06:08:31;;;;;;;16.35;6.20;;;16.10;84.20;;;;;;6314869;22;20105;-76
2021/09/07 06:10:58;;;;;;;10.63;5.30;;;16.10;84.10;;;;;;6287850;22;20061;-76
2021/09/07 06:13:25;;;;;;;12.43;6.32;;;16.20;83.80;;;;;;6314685;22;20053;-77
2021/09/07 06:15:53;;;;;;;10.15;5.07;;;16.20;83.90;;;;;;6316493;22;20144;-74
2021/09/07 06:18:22;;;;;;;13.40;5.85;;;16.30;83.40;;;;;;6289645;22;20026;-76
2021/09/07 06:20:49;;;;;;;10.50;5.47;;;16.40;83.20;;;;;;6317028;22;20030;-76
2021/09/07 06:23:16;;;;;;;10.88;5.28;;;16.60;82.80;;;;;;6289355;22;20253;-76
2021/09/07 06:25:43;;;;;;;13.65;5.35;;;16.50;82.80;;;;;;6315885;22;20037;-78
2021/09/07 06:28:10;;;;;;;11.68;5.50;;;16.60;82.70;;;;;;6316451;22;20073;-76
2021/09/07 06:30:38;;;;;;;10.25;4.95;;;16.60;82.50;;;;;;6288703;22;20041;-75
2021/09/07 06:33:05;;;;;;;11.30;5.07;;;16.60;82.60;;;;;;6317141;22;20029;-77
2021/09/07 06:35:33;;;;;;;14.25;5.47;;;16.70;82.40;;;;;;6290240;22;20027;-76
2021/09/07 06:38:01;;;;;;;10.43;5.50;;;16.70;82.30;;;;;;6317970;22;20022;-78
2021/09/07 06:40:29;;;;;;;11.65;5.55;;;16.80;82.10;;;;;;6288243;22;20023;-77
2021/09/07 06:42:56;;;;;;;8.82;4.75;;;16.80;82.00;;;;;;6317745;22;20223;-77
2021/09/07 06:45:24;;;;;;;9.65;5.30;;;16.90;81.90;;;;;;6317093;22;20082;-77
2021/09/07 06:47:52;;;;;;;15.30;6.40;;;17.10;81.70;;;;;;6318748;22;20059;-77
2021/09/07 06:50:19;;;;;;;13.88;6.10;;;17.20;81.30;;;;;;6317802;22;20015;-77
2021/09/07 06:52:48;;;;;;;13.70;6.32;;;17.20;81.30;;;;;;6317378;22;20337;-76
2021/09/07 06:55:15;;;;;;;11.65;5.93;;;17.40;81.30;;;;;;6291008;22;20023;-78
2021/09/07 06:57:42;;;;;;;13.95;6.57;;;17.50;80.80;;;;;;6290318;22;20027;-76
2021/09/07 07:00:10;;;;;;;11.93;6.13;;;17.50;80.60;;;;;;6285767;22;20019;-77
2021/09/07 07:02:39;;;;;;;13.80;6.00;;;17.70;80.00;;;;;;6291172;22;20019;-76
2021/09/07 07:05:08;;;;;;;10.52;5.40;;;17.90;79.50;;;;;;6318511;22;20064;-77
2021/09/07 07:07:35;;;;;;;10.02;5.70;;;18.10;79.10;;;;;;6317471;22;20026;-77
2021/09/07 07:10:04;;;;;;;11.70;6.40;;;18.10;78.70;;;;;;6290546;22;20022;-75
2021/09/07 07:12:34;;;;;;;11.73;5.85;;;18.20;79.00;;;;;;6318753;22;20019;-77
2021/09/07 07:15:01;;;;;;;14.88;6.50;;;18.40;78.30;;;;;;6319842;22;20022;-77
2021/09/07 07:17:29;;;;;;;13.15;6.63;;;18.50;78.00;;;;;;6290907;22;20016;-76
2021/09/07 07:19:57;;;;;;;12.15;6.35;;;18.60;77.50;;;;;;6318325;22;20373;-78
2021/09/07 07:22:25;;;;;;;11.73;6.18;;;18.70;77.70;;;;;;6317281;22;20050;-76
2021/09/07 07:24:53;;;;;;;11.73;6.38;;;18.90;76.40;;;;;;6319251;22;20037;-76
2021/09/07 07:27:22;;;;;;;16.25;6.45;;;19.00;75.90;;;;;;6290663;22;20019;-76
2021/09/07 07:29:49;;;;;;;13.10;6.53;;;19.10;75.60;;;;;;6317794;22;20080;-77
2021/09/07 07:32:16;;;;;;;14.68;6.38;;;19.10;75.70;;;;;;6291682;22;20015;-78
2021/09/07 07:34:44;;;;;;;12.32;6.35;;;19.20;75.50;;;;;;6291221;22;20038;-77
2021/09/07 07:37:11;;;;;;;15.38;6.28;;;19.30;75.30;;;;;;6316354;22;20015;-77
2021/09/07 07:39:38;;;;;;;11.73;6.50;;;19.30;75.20;;;;;;6316641;22;20019;-77
2021/09/07 07:42:05;;;;;;;10.40;5.78;;;19.30;74.70;;;;;;6317000;22;20038;-78
2021/09/07 07:44:34;;;;;;;11.45;6.43;;;19.40;74.60;;;;;;6315882;22;20023;-77
2021/09/07 07:47:01;;;;;;;10.65;6.15;;;19.40;74.30;;;;;;6317516;22;20022;-77
2021/09/07 07:49:28;;;;;;;13.82;6.43;;;19.50;74.20;;;;;;6289936;22;20219;-77
2021/09/07 07:51:56;;;;;;;13.13;7.32;;;19.60;74.10;;;;;;6317711;22;20037;-76
2021/09/07 07:54:23;;;;;;;11.80;7.28;;;19.60;73.90;;;;;;6289459;22;20231;-78
2021/09/07 07:56:50;;;;;;;9.88;6.20;;;19.70;73.60;;;;;;6316358;22;20015;-77
2021/09/07 07:59:17;;;;;;;13.52;6.10;;;19.90;73.20;;;;;;6316785;22;20020;-77
2021/09/07 08:01:46;;;;;;;13.65;6.45;;;20.10;72.50;;;;;;6310958;22;20306;-74
2021/09/07 08:04:13;;;;;;;12.40;6.53;;;20.20;72.20;;;;;;6315358;22;20023;-74
2021/09/07 08:06:40;;;;;;;10.93;5.95;;;20.30;71.20;;;;;;6313386;22;20031;-75
2021/09/07 08:09:09;;;;;;;12.85;6.80;;;20.30;71.00;;;;;;6287189;22;20022;-74
2021/09/07 08:11:37;;;;;;;16.00;7.38;;;20.40;70.60;;;;;;6287690;22;20034;-74
2021/09/07 08:14:05;;;;;;;10.90;5.97;;;20.40;70.40;;;;;;6315605;22;20102;-74
2021/09/07 08:16:32;;;;;;;14.35;6.97;;;20.50;70.60;;;;;;6288387;22;20376;-74
2021/09/07 08:19:00;;;;;;;11.88;6.35;;;20.50;70.00;;;;;;6316732;22;20022;-74
2021/09/07 08:21:31;;;;;;;14.15;7.40;;;20.60;70.00;;;;;;6315788;22;20045;-74
2021/09/07 08:23:58;;;;;;;13.15;6.43;;;20.80;69.60;;;;;;6289272;22;20026;-74
2021/09/07 08:26:25;;;;;;;12.38;6.57;;;21.10;68.90;;;;;;6316258;22;20026;-74
2021/09/07 08:28:52;;;;;;;19.92;6.50;;;21.10;68.70;;;;;;6316804;22;20021;-74
2021/09/07 08:31:20;;;;;;;15.88;6.45;;;21.30;68.40;;;;;;6288797;22;20119;-73
2021/09/07 08:33:47;;;;;;;13.65;6.45;;;21.40;67.90;;;;;;6287052;22;20015;-73
2021/09/07 08:36:16;;;;;;;12.32;6.28;;;21.50;67.00;;;;;;6315579;22;20057;-74
2021/09/07 08:38:43;;;;;;;15.30;6.47;;;21.50;67.40;;;;;;6315848;22;20371;-73
2021/09/07 08:41:14;;;;;;;12.25;6.68;;;21.70;66.90;;;;;;6314818;22;20023;-74
2021/09/07 08:43:48;;;;;;;10.77;5.97;;;21.80;66.00;;;;;;6287750;22;20026;-74
2021/09/07 08:46:15;;;;;;;14.38;6.15;;;22.00;66.20;;;;;;6288386;22;20030;-72
2021/09/07 08:48:42;;;;;;;11.18;6.28;;;22.10;65.60;;;;;;6315937;22;20025;-73
2021/09/07 08:51:09;;;;;;;10.93;5.78;;;22.20;64.70;;;;;;6315814;22;20027;-74
2021/09/07 08:53:38;;;;;;;11.20;5.68;;;22.30;64.70;;;;;;6315078;22;20070;-74
2021/09/07 08:56:06;;;;;;;10.88;6.03;;;22.40;64.40;;;;;;6315345;22;20023;-72
2021/09/07 08:58:33;;;;;;;10.65;5.55;;;22.50;63.70;;;;;;6314940;22;20030;-72
2021/09/07 09:01:11;;;;;;;12.38;5.78;;;22.50;62.90;;;;;;6282323;22;20015;-73
2021/09/07 09:03:40;;;;;;;9.88;5.43;;;22.70;62.80;;;;;;6314737;22;20049;-73
2021/09/07 09:06:07;;;;;;;11.50;6.07;;;22.80;62.50;;;;;;6315533;22;20334;-72
2021/09/07 09:08:35;;;;;;;11.90;5.60;;;22.90;62.50;;;;;;6287561;22;20027;-73
2021/09/07 09:11:06;;;;;;;10.45;5.53;;;23.10;61.90;;;;;;6315102;22;20019;-72
2021/09/07 09:13:45;;;;;;;11.95;5.90;;;23.00;61.30;;;;;;6314904;22;20019;-73
2021/09/07 09:16:13;;;;;;;12.60;6.50;;;23.00;61.00;;;;;;6313326;22;20022;-73
2021/09/07 09:18:42;;;;;;;12.80;6.18;;;23.10;60.70;;;;;;6313002;22;20019;-73
2021/09/07 09:21:23;;;;;;;10.50;6.00;;;23.30;60.50;;;;;;6313685;22;20061;-72
2021/09/07 09:24:14;;;;;;;12.68;6.43;;;23.40;60.30;;;;;;6314680;22;20050;-73
2021/09/07 09:26:57;;;;;;;14.23;6.38;;;23.50;59.80;;;;;;6312925;22;20030;-73
2021/09/07 09:29:27;;;;;;;11.95;6.35;;;23.80;59.40;;;;;;6313391;22;20057;-74
2021/09/07 09:31:57;;;;;;;13.85;6.68;;;24.10;58.50;;;;;;6313732;22;20017;-75
2021/09/07 09:34:25;;;;;;;18.92;6.80;;;24.30;57.60;;;;;;6311476;22;20019;-75
2021/09/07 09:36:58;;;;;;;10.65;6.60;;;24.50;56.90;;;;;;6312158;22;20015;-74
2021/09/07 09:39:43;;;;;;;14.52;6.53;;;24.80;55.40;;;;;;6312806;22;20020;-74
2021/09/07 09:42:15;;;;;;;13.13;6.25;;;25.30;54.90;;;;;;6313580;22;20018;-74
2021/09/07 09:44:43;;;;;;;11.70;6.90;;;25.50;53.60;;;;;;6312676;22;20077;-74
2021/09/07 09:47:11;;;;;;;11.30;5.80;;;25.90;52.80;;;;;;6313972;22;20023;-74
2021/09/07 09:49:39;;;;;;;13.10;6.65;;;26.10;52.60;;;;;;6313380;22;20018;-74
2021/09/07 09:52:08;;;;;;;11.73;6.30;;;26.60;51.80;;;;;;6313539;22;20015;-74
2021/09/07 09:54:38;;;;;;;11.70;6.70;;;27.10;49.40;;;;;;6313953;22;20306;-74
2021/09/07 09:57:06;;;;;;;10.98;6.03;;;27.40;48.40;;;;;;6314532;22;20069;-76
2021/09/07 09:59:40;;;;;;;11.65;6.90;;;27.50;48.20;;;;;;6314343;22;20259;-74
2021/09/07 10:02:07;;;;;;;13.00;6.22;;;27.10;48.10;;;;;;6282139;22;20287;-73
2021/09/07 10:04:35;;;;;;;15.32;6.40;;;27.20;49.40;;;;;;6316525;22;20019;-74
2021/09/07 10:07:03;;;;;;;14.48;6.55;;;27.50;48.10;;;;;;6316088;22;20031;-74
2021/09/07 10:09:31;;;;;;;13.65;6.40;;;28.00;46.20;;;;;;6316331;22;20027;-73
2021/09/07 10:12:16;;;;;;;14.27;6.90;;;28.70;45.30;;;;;;6316118;22;20034;-73
2021/09/07 10:14:54;;;;;;;11.30;6.72;;;29.40;42.20;;;;;;6315332;22;20015;-73
2021/09/07 10:17:29;;;;;;;10.50;6.18;;;30.00;41.00;;;;;;6315766;22;20027;-73
2021/09/07 10:20:03;;;;;;;15.55;6.68;;;30.50;39.80;;;;;;6315702;22;20183;-74
2021/09/07 10:23:16;;;;;;;10.95;5.53;;;31.00;38.90;;;;;;6286754;22;20033;-74
2021/09/07 10:25:57;;;;;;;14.48;6.28;;;30.50;38.80;;;;;;6284569;22;20017;-73
2021/09/07 10:28:35;;;;;;;12.25;6.32;;;31.00;38.80;;;;;;6288155;22;20039;-74
2021/09/07 10:31:07;;;;;;;13.05;6.55;;;31.30;37.50;;;;;;6316368;22;20034;-74
2021/09/07 10:33:45;;;;;;;12.90;6.45;;;31.20;38.00;;;;;;6315145;22;20031;-74
2021/09/07 10:36:16;;;;;;;12.70;5.57;;;31.70;37.60;;;;;;6313805;22;20227;-73
2021/09/07 10:38:47;;;;;;;11.15;6.38;;;32.20;36.60;;;;;;6314084;22;20022;-73
2021/09/07 10:41:43;;;;;;;13.50;6.63;;;32.80;34.90;;;;;;6288181;22;21950;-74
2021/09/07 10:44:10;;;;;;;11.00;6.63;;;32.90;34.50;;;;;;6282872;22;20327;-73
2021/09/07 10:46:50;;;;;;;12.10;6.20;;;33.20;34.80;;;;;;6283790;22;20039;-73
2021/09/07 10:49:20;;;;;;;12.48;6.22;;;33.60;33.10;;;;;;6282941;22;20016;-75
2021/09/07 10:52:14;;;;;;;11.10;6.22;;;34.40;32.60;;;;;;6283549;22;20027;-73
2021/09/07 10:54:46;;;;;;;13.13;6.63;;;34.40;32.30;;;;;;6282333;22;20236;-73
2021/09/07 10:57:46;;;;;;;9.60;5.72;;;34.20;31.40;;;;;;6280793;22;20016;-74
2021/09/07 11:00:30;;;;;;;15.40;7.88;;;34.00;31.90;;;;;;6278654;22;20027;-75
2021/09/07 11:03:00;;;;;;;12.20;5.80;;;34.30;31.20;;;;;;6284287;22;20019;-74
2021/09/07 11:05:42;;;;;;;11.90;6.88;;;34.10;32.10;;;;;;6283475;22;20028;-75
2021/09/07 11:08:11;;;;;;;12.02;6.10;;;34.90;31.60;;;;;;6284225;22;20031;-74
2021/09/07 11:10:40;;;;;;;10.80;6.35;;;35.50;29.30;;;;;;6283839;22;20341;-73
2021/09/07 11:13:09;;;;;;;12.00;6.57;;;35.30;29.80;;;;;;6284410;22;20019;-73
2021/09/07 11:15:38;;;;;;;9.38;6.10;;;35.10;29.90;;;;;;6280474;22;20031;-74
2021/09/07 11:18:09;;;;;;;10.00;5.63;;;35.50;29.80;;;;;;6284235;22;20315;-73
2021/09/07 11:20:37;;;;;;;11.85;6.60;;;35.90;29.10;;;;;;6284016;22;20027;-73
2021/09/07 11:23:09;;;;;;;;;;;35.20;29.10;;;;;;6285064;22;20361;-74
2021/09/07 11:25:37;;;;;;;13.75;5.85;;;35.80;28.70;;;;;;6283138;22;19919;-74
2021/09/07 11:28:06;;;;;;;10.52;5.95;;;35.50;28.10;;;;;;6282695;22;20023;-73
2021/09/07 11:30:35;;;;;;;10.55;6.00;;;35.80;27.50;;;;;;6283645;22;20327;-73
2021/09/07 11:33:08;;;;;;;13.73;6.45;;;36.10;28.50;;;;;;6284433;22;20020;-73
2021/09/07 11:35:42;;;;;;;11.55;6.50;;;36.30;27.90;;;;;;6285662;22;20020;-72
2021/09/07 11:38:11;;;;;;;11.13;6.20;;;36.10;28.80;;;;;;6285663;22;20058;-73
2021/09/07 11:40:43;;;;;;;13.05;5.55;;;35.80;28.60;;;;;;6286941;22;20131;-74
2021/09/07 11:43:12;;;;;;;12.30;6.20;;;36.10;28.00;;;;;;6286664;22;20082;-73
2021/09/07 11:45:40;;;;;;;9.70;5.53;;;36.60;27.60;;;;;;6309979;22;20057;-74
2021/09/07 11:48:10;;;;;;;12.43;6.22;;;36.10;26.70;;;;;;6318236;22;20023;-73
2021/09/07 11:50:39;;;;;;;14.88;5.95;;;35.30;28.20;;;;;;6317921;22;20026;-73
2021/09/07 11:53:09;;;;;;;10.50;5.72;;;34.70;27.90;;;;;;6318350;22;20337;-73
2021/09/07 11:55:51;;;;;;;14.55;6.00;;;34.50;28.20;;;;;;6316973;22;20069;-73
2021/09/07 11:58:30;;;;;;;10.70;5.47;;;34.90;27.60;;;;;;6317287;22;20079;-73
2021/09/07 12:01:16;;;;;;;12.73;5.88;;;34.30;28.70;;;;;;6312153;22;20034;-73
2021/09/07 12:03:47;;;;;;;15.25;6.65;;;33.70;29.70;;;;;;6289543;22;20030;-75
2021/09/07 12:06:18;;;;;;;10.77;5.57;;;34.70;27.60;;;;;;6317543;22;20057;-73
2021/09/07 12:08:47;;;;;;;10.27;5.72;;;35.90;26.00;;;;;;6316883;22;20254;-73
2021/09/07 12:11:27;;;;;;;14.82;5.97;;;35.80;25.70;;;;;;6316042;22;20029;-74
2021/09/07 12:14:03;;;;;;;10.45;5.70;;;35.10;25.30;;;;;;6317591;22;20019;-73
2021/09/07 12:16:30;;;;;;;18.90;6.35;;;35.20;26.80;;;;;;6288272;22;20033;-74
2021/09/07 12:18:59;;;;;;;11.20;5.70;;;35.70;26.00;;;;;;6317009;22;20042;-73
2021/09/07 12:21:27;;;;;;;14.15;5.38;;;36.70;25.50;;;;;;6315513;22;20056;-74
2021/09/07 12:23:56;;;;;;;11.48;6.20;;;37.40;23.60;;;;;;6317844;22;20056;-74
2021/09/07 12:26:39;;;;;;;;;;;37.30;25.20;;;;;;6317041;22;20050;-72
2021/09/07 12:29:14;;;;;;;11.52;5.13;;;37.60;24.10;;;;;;6288246;22;19918;-73
2021/09/07 12:31:42;;;;;;;14.23;6.50;;;37.80;22.50;;;;;;6315682;22;20019;-72
2021/09/07 12:34:11;;;;;;;16.52;5.72;;;38.10;22.60;;;;;;6317321;22;20052;-74
2021/09/07 12:36:45;;;;;;;12.25;5.78;;;38.00;21.80;;;;;;6314561;22;20290;-74
2021/09/07 12:39:13;;;;;;;10.77;5.07;;;38.50;22.10;;;;;;6314134;22;20015;-74
2021/09/07 12:41:42;;;;;;;9.73;5.32;;;39.00;20.70;;;;;;6315192;22;20027;-74
2021/09/07 12:44:13;;;;;;;9.68;4.70;;;39.00;23.20;;;;;;6313819;22;20256;-73
2021/09/07 12:46:40;;;;;;;9.65;4.93;;;38.50;21.30;;;;;;6314527;22;20545;-74
2021/09/07 12:49:07;;;;;;;10.90;5.15;;;39.20;20.90;;;;;;6314660;22;20026;-73
2021/09/07 12:51:36;;;;;;;9.55;5.38;;;38.40;20.90;;;;;;6286922;22;20214;-74